PST,Max TemperatureF,Mean TemperatureF,Min TemperatureF,Max Dew PointF,MeanDew PointF,Min DewpointF,Max Humidity, Mean Humidity, Min Humidity, Max Sea Level PressureIn, Mean Sea Level PressureIn, Min Sea Level PressureIn, Max VisibilityMiles, Mean VisibilityMiles, Min VisibilityMiles, Max Wind SpeedMPH, Mean Wind SpeedMPH, Max Gust SpeedMPH,PrecipitationIn, CloudCover, Events, WindDirDegrees
2012-12-1,64,58,53,47,45,42,73,61,46,30.08,30.01,29.96,10,10,10,14,9,,0.00,2,,71
2012-12-2,71,60,48,47,44,41,76,55,36,30.00,29.91,29.77,10,10,7,36,9,47,0.00,1,,182
2012-12-3,67,58,48,46,43,41,77,61,44,30.20,30.09,29.95,10,10,10,9,5,,0.00,0,,50
2012-12-4,68,57,46,45,42,40,77,60,40,30.32,30.24,30.19,10,10,10,6,3,,0.00,1,,19
2012-12-5,62,54,46,43,41,38,73,63,48,30.17,30.07,29.99,10,10,10,5,2,,0.00,1,,37
2012-12-6,68,54,41,41,39,36,82,60,36,29.99,29.93,29.85,10,10,10,8,3,,0.00,0,,77
2012-12-7,68,56,43,38,28,20,69,40,18,30.01,29.96,29.91,10,10,10,10,5,,0.00,0,,51
2012-12-8,64,50,36,23,21,18,50,35,17,29.99,29.94,29.89,10,10,10,8,3,,0.00,0,,23
2012-12-9,59,50,42,22,20,17,37,29,23,30.30,30.12,29.92,10,10,6,26,14,32,0.00,0,,53
2012-12-10,54,44,33,20,18,16,49,34,25,30.32,30.22,30.13,10,10,1,14,4,,0.00,0,,48
2012-12-11,57,45,33,22,20,16,52,38,25,30.16,30.05,29.91,10,10,10,12,5,,0.00,0,,38
2012-12-12,61,53,45,25,21,18,42,27,20,29.88,29.81,29.76,10,10,7,18,9,21,0.00,0,,129
2012-12-13,58,52,47,48,40,23,100,70,31,29.82,29.75,29.67,10,10,6,17,7,20,0.24,5,Rain-Thunderstorm,63
2012-12-14,52,47,42,48,42,31,100,83,48,29.91,29.75,29.58,10,10,8,23,8,25,0.07,6,Rain,172
2012-12-15,51,46,40,41,36,30,93,76,45,30.02,29.91,29.86,10,10,10,18,8,24,0.01,4,Rain,224
2012-12-16,49,42,35,39,35,33,92,76,57,30.15,30.09,30.02,10,10,10,15,4,,0.00,3,,75
2012-12-17,52,48,44,43,39,36,87,74,66,30.11,30.02,29.87,10,10,10,17,12,17,0.00,7,,58
2012-12-18,55,48,41,46,39,28,87,67,51,29.87,29.72,29.59,10,10,10,25,13,33,0.00,4,Rain,216
2012-12-19,46,40,33,25,14,2,56,36,17,30.46,30.24,29.85,10,10,10,31,17,36,0.00,0,,12
2012-12-20,46,36,27,22,17,11,69,47,25,30.47,30.38,30.28,10,10,10,17,3,,0.00,0,,22
2012-12-21,50,38,26,23,20,14,79,53,25,30.27,30.20,30.14,10,10,10,16,4,,0.00,0,,51
2012-12-22,51,40,28,30,25,21,82,57,34,30.17,30.09,30.02,10,10,10,18,6,24,0.00,0,,51
2012-12-23,52,44,37,33,30,26,70,54,43,30.14,30.04,29.94,10,10,10,16,11,,0.00,1,,64
2012-12-24,61,49,37,37,26,11,81,44,16,30.17,29.96,29.86,10,10,10,25,12,39,0.00,0,Rain,357
2012-12-25,48,42,35,20,15,13,51,35,24,30.27,30.14,29.96,10,10,10,15,9,,0.00,1,,57
2012-12-26,51,44,36,27,22,17,67,47,31,29.93,29.87,29.80,10,10,10,16,8,,0.00,3,,64
2012-12-27,52,42,31,29,25,21,79,55,29,30.12,29.97,29.88,10,10,10,10,5,,0.00,1,,52
2012-12-28,48,40,31,23,20,18,67,46,30,30.27,30.19,30.13,10,10,10,13,6,,0.00,1,,65
2012-12-29,50,42,35,25,21,17,57,43,27,30.15,30.06,29.98,10,10,10,13,7,,0.00,4,,51
2012-12-30,47,38,30,30,25,23,75,59,41,30.02,29.96,29.90,10,10,10,13,3,,0.00,4,,71
2012-12-31,47,38,30,21,17,13,62,42,26,30.27,30.18,30.02,10,10,10,9,5,,0.00,0,,103